Time,TemperatureF,DewpointF,PressureIn,WindDirection,WindDirectionDegrees,WindSpeedMPH,WindSpeedGustMPH,Humidity,HourlyPrecipIn,Conditions,Clouds,dailyrainin,SolarRadiationWatts/m^2,SoftwareType,DateUTC
2013-05-12 00:02:00,55.0,52.0,-100.00,NW,324,3.0,5.0,91,-99.99,,,0.34,1.000000,,2013-05-12 04:02:00,
2013-05-12 00:33:00,55.0,52.0,-100.00,NW,324,3.0,5.0,91,-99.99,,,0.34,1.000000,,2013-05-12 04:33:00,
2013-05-12 00:43:00,55.0,52.0,-100.00,NW,324,3.0,5.0,91,-99.99,,,0.34,1.000000,,2013-05-12 04:43:00,
2013-05-12 00:52:00,55.0,52.0,-100.00,NW,324,3.0,5.0,91,-99.99,,,0.34,1.000000,,2013-05-12 04:52:00,
2013-05-12 02:32:00,52.0,51.0,-100.00,SSW,196,0.0,6.0,96,-99.99,,,-99.99,1.000000,,2013-05-12 06:32:00,
2013-05-12 02:42:00,52.0,51.0,-100.00,SSW,196,0.0,6.0,96,-99.99,,,-99.99,1.000000,,2013-05-12 06:42:00,
2013-05-12 02:52:00,52.0,51.0,-100.00,SSW,196,0.0,6.0,96,-99.99,,,-99.99,1.000000,,2013-05-12 06:52:00,
2013-05-12 03:01:00,52.0,51.0,-100.00,SSW,196,0.0,6.0,96,-99.99,,,-99.99,1.000000,,2013-05-12 07:01:00,
2013-05-12 03:02:00,50.0,49.0,-100.00,North,355,0.0,2.0,96,0.00,,,-99.99,1.000000,,2013-05-12 07:02:00,
2013-05-12 03:32:00,50.0,49.0,-100.00,North,355,0.0,2.0,96,0.00,,,-99.99,1.000000,,2013-05-12 07:32:00,
2013-05-12 03:42:00,50.0,49.0,-100.00,North,355,0.0,2.0,96,0.00,,,-99.99,1.000000,,2013-05-12 07:42:00,
2013-05-12 03:52:00,50.0,49.0,-100.00,North,355,0.0,2.0,96,0.00,,,-99.99,1.000000,,2013-05-12 07:52:00,
2013-05-12 04:32:00,50.0,49.0,-100.00,NE,40,0.0,4.0,95,0.00,,,0.34,1.000000,,2013-05-12 08:32:00,
2013-05-12 04:42:00,50.0,49.0,-100.00,NE,40,0.0,4.0,95,0.00,,,0.34,1.000000,,2013-05-12 08:42:00,
2013-05-12 04:53:00,50.0,49.0,-100.00,NE,40,0.0,4.0,95,0.00,,,0.34,1.000000,,2013-05-12 08:53:00,
2013-05-12 05:01:00,50.0,49.0,-100.00,NE,40,0.0,4.0,95,0.00,,,0.34,1.000000,,2013-05-12 09:01:00,
2013-05-12 05:02:00,49.0,48.0,-100.00,South,172,0.0,2.0,96,0.00,,,0.30,1.000000,,2013-05-12 09:02:00,
2013-05-12 05:21:00,49.0,48.0,-100.00,South,172,0.0,2.0,96,0.00,,,0.30,1.000000,,2013-05-12 09:21:00,
2013-05-12 05:33:00,49.0,48.0,-100.00,South,172,0.0,2.0,96,0.00,,,0.30,1.000000,,2013-05-12 09:33:00,
2013-05-12 05:43:00,49.0,48.0,-100.00,South,172,0.0,2.0,96,0.00,,,0.30,1.000000,,2013-05-12 09:43:00,
2013-05-12 05:53:00,49.0,48.0,-100.00,South,172,0.0,2.0,96,0.00,,,0.30,1.000000,,2013-05-12 09:53:00,
2013-05-12 07:02:00,49.0,48.0,-100.00,SSW,196,0.0,0.0,96,-99.99,,,-99.99,15.000000,,2013-05-12 11:02:00,
2013-05-12 07:22:00,49.0,48.0,-100.00,SSW,196,0.0,0.0,96,-99.99,,,-99.99,15.000000,,2013-05-12 11:22:00,
2013-05-12 07:32:00,49.0,48.0,-100.00,SSW,196,0.0,0.0,96,-99.99,,,-99.99,15.000000,,2013-05-12 11:32:00,
2013-05-12 07:42:00,49.0,48.0,-100.00,SSW,196,0.0,0.0,96,-99.99,,,-99.99,15.000000,,2013-05-12 11:42:00,
2013-05-12 07:52:00,49.0,48.0,-100.00,SSW,196,0.0,0.0,96,-99.99,,,-99.99,15.000000,,2013-05-12 11:52:00,
2013-05-12 08:02:00,50.0,47.0,-100.00,NNE,12,1.0,4.0,89,0.00,,,-99.99,54.000000,,2013-05-12 12:02:00,
2013-05-12 08:22:00,50.0,47.0,-100.00,NNE,12,1.0,4.0,89,0.00,,,-99.99,54.000000,,2013-05-12 12:22:00,
2013-05-12 08:32:00,50.0,47.0,-100.00,NNE,12,1.0,4.0,89,0.00,,,-99.99,54.000000,,2013-05-12 12:32:00,
2013-05-12 08:42:00,50.0,47.0,-100.00,NNE,12,1.0,4.0,89,0.00,,,-99.99,54.000000,,2013-05-12 12:42:00,
2013-05-12 08:52:00,50.0,47.0,-100.00,NNE,12,1.0,4.0,89,0.00,,,-99.99,54.000000,,2013-05-12 12:52:00,
2013-05-12 10:21:00,60.0,45.0,-100.00,West,269,4.0,9.0,58,-99.99,,,0.23,564.000000,,2013-05-12 14:21:00,
2013-05-12 10:32:00,60.0,45.0,-100.00,West,269,4.0,9.0,58,-99.99,,,0.23,564.000000,,2013-05-12 14:32:00,
2013-05-12 10:42:00,60.0,45.0,-100.00,West,269,4.0,9.0,58,-99.99,,,0.23,564.000000,,2013-05-12 14:42:00,
2013-05-12 10:52:00,60.0,45.0,-100.00,West,269,4.0,9.0,58,-99.99,,,0.23,564.000000,,2013-05-12 14:52:00,
2013-05-12 11:01:00,60.0,45.0,-100.00,West,269,4.0,9.0,58,-99.99,,,0.23,564.000000,,2013-05-12 15:01:00,
2013-05-12 11:02:00,60.0,42.0,-100.00,WSW,238,4.0,13.0,51,0.00,,,0.23,700.000000,,2013-05-12 15:02:00,
2013-05-12 11:34:00,60.0,42.0,-100.00,WSW,238,4.0,13.0,51,0.00,,,0.23,700.000000,,2013-05-12 15:34:00,
2013-05-12 11:42:00,60.0,42.0,-100.00,WSW,238,4.0,13.0,51,0.00,,,0.23,700.000000,,2013-05-12 15:42:00,
2013-05-12 11:53:00,60.0,42.0,-100.00,WSW,238,4.0,13.0,51,0.00,,,0.23,700.000000,,2013-05-12 15:53:00,
2013-05-12 12:02:00,59.0,43.0,-100.00,WSW,257,5.0,13.0,55,0.00,,,0.23,661.000000,,2013-05-12 16:02:00,
2013-05-12 12:23:00,59.0,43.0,-100.00,WSW,257,5.0,13.0,55,0.00,,,0.23,661.000000,,2013-05-12 16:23:00,
2013-05-12 12:33:00,59.0,43.0,-100.00,WSW,257,5.0,13.0,55,0.00,,,0.23,661.000000,,2013-05-12 16:33:00,
2013-05-12 12:42:00,59.0,43.0,-100.00,WSW,257,5.0,13.0,55,0.00,,,0.23,661.000000,,2013-05-12 16:42:00,
2013-05-12 12:53:00,59.0,43.0,-100.00,WSW,257,5.0,13.0,55,0.00,,,0.23,661.000000,,2013-05-12 16:53:00,
2013-05-12 14:22:00,54.0,40.0,-100.00,WSW,246,6.0,19.0,60,-99.99,,,0.17,764.000000,,2013-05-12 18:22:00,
2013-05-12 14:32:00,54.0,40.0,-100.00,WSW,246,6.0,19.0,60,-99.99,,,0.17,764.000000,,2013-05-12 18:32:00,
2013-05-12 14:42:00,54.0,40.0,-100.00,WSW,246,6.0,19.0,60,-99.99,,,0.17,764.000000,,2013-05-12 18:42:00,
2013-05-12 14:52:00,54.0,40.0,-100.00,WSW,246,6.0,19.0,60,-99.99,,,0.17,764.000000,,2013-05-12 18:52:00,
2013-05-12 15:01:00,54.0,40.0,-100.00,WSW,246,6.0,19.0,60,-99.99,,,0.17,764.000000,,2013-05-12 19:01:00,
2013-05-12 15:02:00,48.0,30.0,-100.00,NW,316,6.0,25.0,50,0.00,,,0.10,630.000000,,2013-05-12 19:02:00,
2013-05-12 15:22:00,48.0,30.0,-100.00,NW,316,6.0,25.0,50,0.00,,,0.10,630.000000,,2013-05-12 19:22:00,
2013-05-12 15:32:00,48.0,30.0,-100.00,NW,316,6.0,25.0,50,0.00,,,0.10,630.000000,,2013-05-12 19:32:00,
2013-05-12 15:42:00,48.0,30.0,-100.00,NW,316,6.0,25.0,50,0.00,,,0.10,630.000000,,2013-05-12 19:42:00,
2013-05-12 15:52:00,48.0,30.0,-100.00,NW,316,6.0,25.0,50,0.00,,,0.10,630.000000,,2013-05-12 19:52:00,
2013-05-12 16:32:00,54.0,34.0,-100.00,SW,226,5.0,15.0,46,0.00,,,0.05,566.000000,,2013-05-12 20:32:00,
2013-05-12 16:42:00,54.0,34.0,-100.00,SW,226,5.0,15.0,46,0.00,,,0.05,566.000000,,2013-05-12 20:42:00,
2013-05-12 16:52:00,54.0,34.0,-100.00,SW,226,5.0,15.0,46,0.00,,,0.05,566.000000,,2013-05-12 20:52:00,
2013-05-12 17:01:00,54.0,34.0,-100.00,SW,226,5.0,15.0,46,0.00,,,0.05,566.000000,,2013-05-12 21:01:00,
2013-05-12 17:02:00,54.0,28.0,-100.00,WNW,292,7.0,21.0,37,0.00,,,0.02,629.000000,,2013-05-12 21:02:00,
2013-05-12 17:22:00,54.0,28.0,-100.00,WNW,292,7.0,21.0,37,0.00,,,0.02,629.000000,,2013-05-12 21:22:00,
2013-05-12 17:33:00,54.0,28.0,-100.00,WNW,292,7.0,21.0,37,0.00,,,0.02,629.000000,,2013-05-12 21:33:00,
2013-05-12 17:42:00,54.0,28.0,-100.00,WNW,292,7.0,21.0,37,0.00,,,0.02,629.000000,,2013-05-12 21:42:00,
2013-05-12 17:53:00,54.0,28.0,-100.00,WNW,292,7.0,21.0,37,0.00,,,0.02,629.000000,,2013-05-12 21:53:00,
2013-05-12 20:32:00,47.0,25.0,-100.00,WSW,254,3.0,14.0,42,-99.99,,,0.00,18.000000,,2013-05-13 00:32:00,
2013-05-12 20:42:00,47.0,25.0,-100.00,WSW,254,3.0,14.0,42,-99.99,,,0.00,18.000000,,2013-05-13 00:42:00,
2013-05-12 20:52:00,47.0,25.0,-100.00,WSW,254,3.0,14.0,42,-99.99,,,0.00,18.000000,,2013-05-13 00:52:00,
2013-05-12 21:01:00,47.0,25.0,-100.00,WSW,254,3.0,14.0,42,-99.99,,,0.00,18.000000,,2013-05-13 01:01:00,
2013-05-12 21:02:00,44.0,27.0,-100.00,West,259,1.0,12.0,50,0.00,,,-99.99,1.000000,,2013-05-13 01:02:00,
2013-05-12 21:22:00,44.0,27.0,-100.00,West,259,1.0,12.0,50,0.00,,,-99.99,1.000000,,2013-05-13 01:22:00,
2013-05-12 21:32:00,44.0,27.0,-100.00,West,259,1.0,12.0,50,0.00,,,-99.99,1.000000,,2013-05-13 01:32:00,
2013-05-12 21:42:00,44.0,27.0,-100.00,West,259,1.0,12.0,50,0.00,,,-99.99,1.000000,,2013-05-13 01:42:00,
2013-05-12 21:52:00,44.0,27.0,-100.00,West,259,1.0,12.0,50,0.00,,,-99.99,1.000000,,2013-05-13 01:52:00,
2013-05-12 22:02:00,43.0,25.0,-100.00,WNW,288,4.0,10.0,49,0.00,,,0.00,1.000000,,2013-05-13 02:02:00,
2013-05-12 22:21:00,43.0,25.0,-100.00,WNW,288,4.0,10.0,49,0.00,,,0.00,1.000000,,2013-05-13 02:21:00,
2013-05-12 22:32:00,43.0,25.0,-100.00,WNW,288,4.0,10.0,49,0.00,,,0.00,1.000000,,2013-05-13 02:32:00,
2013-05-12 22:42:00,43.0,25.0,-100.00,WNW,288,4.0,10.0,49,0.00,,,0.00,1.000000,,2013-05-13 02:42:00,
2013-05-12 22:52:00,43.0,25.0,-100.00,WNW,288,4.0,10.0,49,0.00,,,0.00,1.000000,,2013-05-13 02:52:00,
2013-05-12 23:02:00,42.0,25.0,-100.00,NW,320,2.0,14.0,50,0.00,,,-99.99,1.000000,,2013-05-13 03:02:00,
2013-05-12 23:22:00,42.0,25.0,-100.00,NW,320,2.0,14.0,50,0.00,,,-99.99,1.000000,,2013-05-13 03:22:00,
2013-05-12 23:33:00,42.0,25.0,-100.00,NW,320,2.0,14.0,50,0.00,,,-99.99,1.000000,,2013-05-13 03:33:00,
2013-05-12 23:42:00,42.0,25.0,-100.00,NW,320,2.0,14.0,50,0.00,,,-99.99,1.000000,,2013-05-13 03:42:00,
2013-05-12 23:53:00,42.0,25.0,-100.00,NW,320,2.0,14.0,50,0.00,,,-99.99,1.000000,,2013-05-13 03:53:00,